Time;durP1;ratioP1;P1;durP2;ratioP2;P2;SDS_P1;SDS_P2;PMS_P1;PMS_P2;Temp;Humidity;BMP_temperature;BMP_pressure;BME280_temperature;BME280_humidity;BME280_pressure;Samples;Min_cycle;Max_cycle;Signal;HPM_P1;HPM_P2
2021/11/04 00:01:04;;;;;;;14.27;10.80;;;9.10;99.90;;;;;;5097653;28;20458;-68
2021/11/04 00:03:30;;;;;;;15.37;12.00;;;9.10;99.90;;;;;;5097735;28;20564;-67
2021/11/04 00:05:57;;;;;;;14.97;11.80;;;9.00;99.90;;;;;;5097799;28;20458;-67
2021/11/04 00:08:24;;;;;;;13.77;11.57;;;9.00;99.90;;;;;;5097545;28;20485;-67
2021/11/04 00:10:51;;;;;;;17.80;12.53;;;9.00;99.90;;;;;;5097646;28;20487;-68
2021/11/04 00:13:19;;;;;;;14.40;12.10;;;9.00;99.90;;;;;;5097310;28;20471;-67
2021/11/04 00:15:45;;;;;;;13.80;11.50;;;9.00;99.90;;;;;;5097581;28;20830;-67
2021/11/04 00:18:12;;;;;;;14.03;11.83;;;9.00;99.90;;;;;;5098399;28;20465;-67
2021/11/04 00:20:39;;;;;;;17.57;11.90;;;8.90;99.90;;;;;;5097541;28;20458;-67
2021/11/04 00:23:05;;;;;;;23.33;13.63;;;8.90;99.90;;;;;;5097169;28;20511;-68
2021/11/04 00:25:32;;;;;;;19.10;12.53;;;9.00;99.90;;;;;;5097305;28;20519;-67
2021/11/04 00:28:00;;;;;;;18.67;12.63;;;9.00;99.90;;;;;;5097978;28;20489;-68
2021/11/04 00:30:28;;;;;;;15.37;12.37;;;9.00;99.90;;;;;;5097265;28;20494;-67
2021/11/04 00:32:56;;;;;;;17.33;13.67;;;8.90;99.90;;;;;;5097261;28;20466;-67
2021/11/04 00:35:23;;;;;;;15.30;12.70;;;8.90;99.90;;;;;;5097506;28;20556;-68
2021/11/04 00:37:50;;;;;;;14.43;11.90;;;8.90;99.90;;;;;;5097007;28;20478;-67
2021/11/04 00:40:20;;;;;;;16.73;12.80;;;8.90;99.90;;;;;;5097014;28;20465;-67
2021/11/04 00:42:47;;;;;;;18.37;12.33;;;8.80;99.90;;;;;;5096279;28;20839;-67
2021/11/04 00:45:14;;;;;;;18.10;13.23;;;8.80;99.90;;;;;;5097304;28;20469;-68
2021/11/04 00:47:42;;;;;;;20.00;14.60;;;8.80;99.90;;;;;;5096577;28;20921;-67
2021/11/04 00:50:09;;;;;;;21.00;12.67;;;8.80;99.90;;;;;;5096800;28;20481;-67
2021/11/04 00:52:36;;;;;;;16.80;13.10;;;8.80;99.90;;;;;;5096955;28;20454;-67
2021/11/04 00:55:04;;;;;;;18.67;13.27;;;8.80;99.90;;;;;;5097016;28;20464;-68
2021/11/04 00:57:30;;;;;;;17.33;12.80;;;8.80;99.90;;;;;;5096081;28;20479;-69
2021/11/04 00:59:57;;;;;;;17.47;14.10;;;8.80;99.90;;;;;;5096970;28;20650;-67
2021/11/04 01:02:26;;;;;;;16.93;13.20;;;8.70;99.90;;;;;;5096573;28;20468;-67
2021/11/04 01:04:54;;;;;;;19.00;13.93;;;8.70;99.90;;;;;;5096864;28;20458;-68
2021/11/04 01:07:20;;;;;;;15.20;12.77;;;8.70;99.90;;;;;;5096518;28;20454;-68
2021/11/04 01:09:47;;;;;;;19.53;14.90;;;8.70;99.90;;;;;;5096350;28;20966;-67
2021/11/04 01:12:14;;;;;;;17.93;14.00;;;8.70;99.90;;;;;;5096430;28;20457;-67
2021/11/04 01:14:41;;;;;;;19.97;15.00;;;8.70;99.90;;;;;;5096525;28;20459;-67
2021/11/04 01:17:07;;;;;;;24.43;15.07;;;8.70;99.90;;;;;;5096631;28;20526;-67
2021/11/04 01:19:34;;;;;;;20.07;15.87;;;8.70;99.90;;;;;;5096553;28;20454;-67
2021/11/04 01:22:03;;;;;;;21.10;14.90;;;8.70;99.90;;;;;;5096755;28;20479;-67
2021/11/04 01:24:30;;;;;;;21.33;15.03;;;8.70;99.90;;;;;;5096423;28;20462;-67
2021/11/04 01:26:56;;;;;;;20.70;14.43;;;8.70;99.90;;;;;;5096267;28;20462;-68
2021/11/04 01:29:23;;;;;;;18.93;14.87;;;8.70;99.90;;;;;;5096116;28;20974;-68
2021/11/04 01:31:50;;;;;;;18.30;13.93;;;8.70;99.90;;;;;;5095783;28;20930;-68
2021/11/04 01:34:17;;;;;;;22.00;15.40;;;8.70;99.90;;;;;;5096081;28;20465;-67
2021/11/04 01:36:43;;;;;;;19.77;15.00;;;8.70;99.90;;;;;;5096423;28;20469;-67
2021/11/04 01:39:11;;;;;;;20.40;15.83;;;8.60;99.90;;;;;;5095956;28;20461;-67
2021/11/04 01:41:38;;;;;;;20.23;15.23;;;8.60;99.90;;;;;;5095807;28;20880;-67
2021/11/04 01:44:05;;;;;;;20.67;14.97;;;8.60;99.90;;;;;;5096144;28;20755;-67
2021/11/04 01:46:32;;;;;;;20.50;15.60;;;8.60;99.90;;;;;;5096165;28;20785;-68
2021/11/04 01:49:00;;;;;;;21.67;14.73;;;8.60;99.90;;;;;;5095336;28;20481;-67
2021/11/04 01:51:26;;;;;;;22.23;16.60;;;8.60;99.90;;;;;;5095706;28;20552;-67
2021/11/04 01:53:53;;;;;;;19.40;15.47;;;8.70;99.90;;;;;;5096155;28;20460;-67
2021/11/04 01:56:21;;;;;;;19.70;14.97;;;8.70;99.90;;;;;;5095434;28;20902;-68
2021/11/04 01:58:48;;;;;;;22.07;15.27;;;8.70;99.90;;;;;;5095669;28;20845;-68
2021/11/04 02:01:16;;;;;;;21.10;16.60;;;8.60;99.90;;;;;;5095479;28;20490;-67
2021/11/04 02:03:45;;;;;;;23.90;16.60;;;8.60;99.90;;;;;;5095845;28;20544;-68
2021/11/04 02:06:18;;;;;;;20.67;14.80;;;8.60;99.90;;;;;;5095647;28;20540;-68
2021/11/04 02:08:52;;;;;;;20.37;15.73;;;8.60;99.90;;;;;;5095350;28;20454;-68
2021/11/04 02:11:23;;;;;;;24.67;16.53;;;8.60;99.90;;;;;;5095567;28;20444;-68
2021/11/04 02:13:55;;;;;;;20.70;16.47;;;8.60;99.90;;;;;;5095193;28;20446;-67
2021/11/04 02:16:24;;;;;;;23.87;17.10;;;8.60;99.90;;;;;;5095345;28;20442;-67
2021/11/04 02:18:52;;;;;;;22.67;16.37;;;8.60;99.90;;;;;;5094877;28;20453;-68
2021/11/04 02:21:27;;;;;;;22.40;16.40;;;8.60;99.90;;;;;;5095934;28;20839;-67
2021/11/04 02:24:04;;;;;;;20.03;16.03;;;8.50;99.90;;;;;;5095361;28;20443;-67
2021/11/04 02:26:33;;;;;;;22.03;16.87;;;8.50;99.90;;;;;;5095256;28;20452;-68
2021/11/04 02:29:01;;;;;;;23.47;17.20;;;8.50;99.90;;;;;;5094890;28;20929;-68
2021/11/04 02:31:30;;;;;;;23.97;18.20;;;8.50;99.90;;;;;;5095225;28;20458;-68
2021/11/04 02:33:57;;;;;;;26.17;17.77;;;8.40;99.90;;;;;;5094976;28;20594;-67
2021/11/04 02:36:25;;;;;;;27.10;17.37;;;8.40;99.90;;;;;;5095055;28;20510;-68
2021/11/04 02:38:52;;;;;;;21.43;16.57;;;8.40;99.90;;;;;;5095169;28;20909;-67
2021/11/04 02:41:21;;;;;;;23.60;17.70;;;8.40;99.90;;;;;;5095056;28;20456;-68
2021/11/04 02:43:49;;;;;;;23.93;17.60;;;8.40;99.90;;;;;;5094763;28;20568;-67
2021/11/04 02:46:16;;;;;;;23.17;17.23;;;8.40;99.90;;;;;;5094618;28;20457;-67
2021/11/04 02:48:43;;;;;;;27.90;18.23;;;8.40;99.90;;;;;;5094847;28;20468;-67
2021/11/04 02:51:10;;;;;;;23.17;17.00;;;8.30;99.90;;;;;;5094563;28;20492;-67
2021/11/04 02:53:37;;;;;;;21.93;17.17;;;8.40;99.90;;;;;;5094891;28;20463;-67
2021/11/04 02:56:04;;;;;;;24.03;17.17;;;8.30;99.90;;;;;;5094627;28;20466;-67
2021/11/04 02:58:30;;;;;;;23.97;17.47;;;8.30;99.90;;;;;;5094575;28;20541;-67
2021/11/04 03:01:01;;;;;;;23.87;18.53;;;8.30;99.90;;;;;;5094725;28;20458;-68
2021/11/04 03:03:27;;;;;;;26.27;18.73;;;8.30;99.90;;;;;;5094578;28;20904;-67
2021/11/04 03:05:54;;;;;;;24.70;18.87;;;8.40;99.90;;;;;;5093897;28;20929;-67
2021/11/04 03:08:21;;;;;;;24.23;18.70;;;8.30;99.90;;;;;;5094561;28;20455;-67
2021/11/04 03:10:48;;;;;;;26.10;20.10;;;8.40;99.90;;;;;;5094669;28;20861;-68
2021/11/04 03:13:14;;;;;;;26.90;19.60;;;8.40;99.90;;;;;;5094385;28;20455;-67
2021/11/04 03:15:50;;;;;;;27.83;18.60;;;8.40;99.90;;;;;;5094692;28;20522;-68
2021/11/04 03:18:19;;;;;;;30.50;21.20;;;8.40;99.90;;;;;;5094234;28;20454;-67
2021/11/04 03:20:47;;;;;;;29.73;21.70;;;8.40;99.90;;;;;;5094734;28;20458;-67
2021/11/04 03:23:14;;;;;;;31.93;20.87;;;8.40;99.90;;;;;;5094526;28;20455;-67
2021/11/04 03:25:42;;;;;;;31.50;22.93;;;8.40;99.90;;;;;;5094527;28;20464;-67
2021/11/04 03:28:10;;;;;;;29.73;22.00;;;8.40;99.90;;;;;;5094306;28;20450;-67
2021/11/04 03:30:39;;;;;;;33.10;21.90;;;8.50;99.90;;;;;;5094271;28;20488;-68
2021/11/04 03:33:08;;;;;;;31.40;21.00;;;8.40;99.90;;;;;;5094475;28;20468;-67
2021/11/04 03:35:38;;;;;;;34.10;23.00;;;8.50;99.90;;;;;;5094426;28;20460;-67
2021/11/04 03:38:08;;;;;;;33.80;24.90;;;8.50;99.90;;;;;;5094218;28;20542;-68
2021/11/04 03:40:35;;;;;;;33.00;22.63;;;8.40;99.90;;;;;;5094846;28;20438;-68
2021/11/04 03:43:03;;;;;;;35.80;24.43;;;8.50;99.90;;;;;;5094455;28;20535;-67
2021/11/04 03:45:30;;;;;;;33.23;24.40;;;8.50;99.90;;;;;;5094003;28;20468;-67
2021/11/04 03:47:58;;;;;;;34.97;23.50;;;8.50;99.90;;;;;;5094059;28;20918;-67
2021/11/04 03:50:26;;;;;;;36.03;24.40;;;8.50;99.90;;;;;;5094107;28;20481;-67
2021/11/04 03:52:54;;;;;;;35.63;24.50;;;8.60;99.90;;;;;;5093977;28;20933;-67
2021/11/04 03:55:25;;;;;;;38.70;24.60;;;8.60;99.90;;;;;;5094304;28;20462;-67
2021/11/04 03:57:53;;;;;;;33.80;24.20;;;8.60;99.90;;;;;;5093957;28;20488;-68
2021/11/04 04:00:20;;;;;;;39.90;27.00;;;8.50;99.90;;;;;;5094122;28;20452;-68
2021/11/04 04:02:49;;;;;;;37.93;25.60;;;8.50;99.90;;;;;;5094155;28;20454;-67
2021/11/04 04:05:17;;;;;;;35.70;24.90;;;8.50;99.90;;;;;;5094411;28;20853;-67
2021/11/04 04:07:44;;;;;;;41.07;27.77;;;8.50;99.90;;;;;;5094164;28;20464;-68
2021/11/04 04:10:12;;;;;;;38.63;25.73;;;8.50;99.90;;;;;;5094030;28;20960;-68
2021/11/04 04:12:39;;;;;;;35.60;25.47;;;8.50;99.90;;;;;;5093585;28;20937;-67
2021/11/04 04:15:06;;;;;;;39.90;27.07;;;8.50;99.90;;;;;;5093986;28;20813;-68
2021/11/04 04:17:33;;;;;;;43.47;27.90;;;8.50;99.90;;;;;;5095852;28;20458;-67
2021/11/04 04:19:59;;;;;;;41.27;27.30;;;8.50;99.90;;;;;;5097635;28;20518;-68
2021/11/04 04:22:26;;;;;;;41.30;28.23;;;8.50;99.90;;;;;;5097714;28;20461;-67
2021/11/04 04:24:53;;;;;;;40.03;27.40;;;8.50;99.90;;;;;;5098572;28;20491;-67
2021/11/04 04:27:21;;;;;;;37.93;27.57;;;8.50;99.90;;;;;;5099689;28;20817;-67
2021/11/04 04:29:48;;;;;;;37.43;25.10;;;8.50;99.90;;;;;;5101742;28;20506;-67
2021/11/04 04:32:14;;;;;;;43.23;26.70;;;8.50;99.90;;;;;;5100421;28;20573;-67
2021/11/04 04:34:42;;;;;;;37.47;26.87;;;8.50;99.90;;;;;;5100551;28;20458;-67
2021/11/04 04:37:09;;;;;;;42.47;28.30;;;8.50;99.90;;;;;;5098473;28;20488;-67
2021/11/04 04:39:37;;;;;;;40.60;27.63;;;8.50;99.90;;;;;;5098691;28;20456;-67
2021/11/04 04:42:04;;;;;;;41.70;26.97;;;8.50;99.90;;;;;;5097416;28;20489;-68
2021/11/04 04:44:32;;;;;;;46.10;29.60;;;8.50;99.90;;;;;;5098816;28;20526;-68
2021/11/04 04:47:01;;;;;;;43.07;28.30;;;8.50;99.90;;;;;;5097466;28;20476;-68
2021/11/04 04:49:28;;;;;;;38.93;26.00;;;8.50;99.90;;;;;;5097095;28;20520;-68
2021/11/04 04:51:55;;;;;;;40.10;26.40;;;8.50;99.90;;;;;;5096944;28;20459;-68
2021/11/04 04:54:22;;;;;;;36.53;25.90;;;8.50;99.90;;;;;;5097084;28;20480;-68
2021/11/04 04:56:48;;;;;;;45.00;29.47;;;8.50;99.90;;;;;;5096373;28;20474;-67
2021/11/04 04:59:15;;;;;;;44.70;28.57;;;8.50;99.90;;;;;;5096976;28;20515;-67
2021/11/04 05:01:43;;;;;;;42.70;27.77;;;8.50;99.90;;;;;;5096733;28;20450;-67
2021/11/04 05:04:10;;;;;;;41.67;27.57;;;8.50;99.90;;;;;;5096539;28;20499;-67
2021/11/04 05:06:36;;;;;;;41.77;28.90;;;8.50;99.90;;;;;;5096956;28;20515;-67
2021/11/04 05:09:03;;;;;;;43.10;27.23;;;8.50;99.90;;;;;;5096251;28;20921;-67
2021/11/04 05:11:33;;;;;;;41.20;26.93;;;8.50;99.90;;;;;;5096538;28;20481;-68
2021/11/04 05:13:59;;;;;;;40.90;28.07;;;8.50;99.90;;;;;;5097246;28;20466;-67
2021/11/04 05:16:26;;;;;;;38.20;26.67;;;8.50;99.90;;;;;;5096149;28;20964;-67
2021/11/04 05:18:54;;;;;;;44.13;27.80;;;8.60;99.90;;;;;;5096368;28;20454;-67
2021/11/04 05:21:21;;;;;;;40.50;26.73;;;8.60;99.90;;;;;;5096455;28;20464;-67
2021/11/04 05:23:48;;;;;;;45.27;28.80;;;8.60;99.90;;;;;;5096167;28;20454;-67
2021/11/04 05:26:14;;;;;;;45.20;30.00;;;8.60;99.90;;;;;;5096371;28;20458;-66
2021/11/04 05:28:42;;;;;;;45.90;28.93;;;8.60;99.90;;;;;;5096008;28;20460;-67
2021/11/04 05:31:08;;;;;;;46.03;29.07;;;8.60;99.90;;;;;;5096483;28;20485;-68
2021/11/04 05:33:35;;;;;;;42.37;28.40;;;8.50;99.90;;;;;;5095987;28;20464;-68
2021/11/04 05:36:03;;;;;;;39.67;27.20;;;8.50;99.90;;;;;;5096060;28;20598;-67
2021/11/04 05:38:30;;;;;;;42.50;28.80;;;8.50;99.90;;;;;;5096293;28;20453;-68
2021/11/04 05:40:56;;;;;;;42.87;28.07;;;8.50;99.90;;;;;;5095675;28;20899;-68
2021/11/04 05:43:23;;;;;;;41.23;28.40;;;8.50;99.90;;;;;;5095499;28;20461;-68
2021/11/04 05:45:50;;;;;;;49.40;28.87;;;8.40;99.90;;;;;;5095451;28;20453;-68
2021/11/04 05:48:16;;;;;;;44.70;28.93;;;8.40;99.90;;;;;;5095768;28;20764;-68
2021/11/04 05:50:43;;;;;;;47.40;29.90;;;8.40;99.90;;;;;;5095515;28;20941;-68
2021/11/04 05:53:11;;;;;;;46.43;29.20;;;8.40;99.90;;;;;;5095626;28;20515;-68
2021/11/04 05:55:38;;;;;;;48.03;29.63;;;8.50;99.90;;;;;;5095381;28;20941;-68
2021/11/04 05:58:06;;;;;;;42.13;29.30;;;8.50;99.90;;;;;;5096099;28;20504;-68
2021/11/04 06:00:32;;;;;;;49.30;29.00;;;8.50;99.90;;;;;;5095469;28;20466;-68
2021/11/04 06:02:59;;;;;;;43.30;28.17;;;8.50;99.90;;;;;;5095536;28;20523;-68
2021/11/04 06:05:26;;;;;;;44.53;29.80;;;8.50;99.90;;;;;;5095275;28;20949;-68
2021/11/04 06:07:52;;;;;;;92.53;61.57;;;8.50;99.90;;;;;;5095559;28;20471;-68
2021/11/04 06:10:20;;;;;;;50.87;31.60;;;8.50;99.90;;;;;;5095288;28;20487;-68
2021/11/04 06:12:48;;;;;;;43.00;29.07;;;8.50;99.90;;;;;;5095537;28;20457;-68
2021/11/04 06:15:15;;;;;;;44.17;29.03;;;8.60;99.90;;;;;;5095383;28;20464;-68
2021/11/04 06:17:41;;;;;;;45.63;29.00;;;8.50;99.90;;;;;;5095337;28;20464;-68
2021/11/04 06:20:09;;;;;;;47.70;29.80;;;8.60;99.90;;;;;;5095402;28;20527;-68
2021/11/04 06:22:36;;;;;;;41.43;29.00;;;8.50;99.90;;;;;;5095168;28;20511;-68
2021/11/04 06:25:05;;;;;;;47.60;28.63;;;8.50;99.90;;;;;;5095392;28;20464;-68
2021/11/04 06:27:33;;;;;;;44.27;29.27;;;8.50;99.90;;;;;;5095401;28;20470;-68
2021/11/04 06:30:01;;;;;;;50.33;32.13;;;8.50;99.90;;;;;;5095413;28;20457;-68
2021/11/04 06:32:28;;;;;;;71.77;44.47;;;8.50;99.90;;;;;;5095105;28;20454;-68
2021/11/04 06:34:55;;;;;;;49.50;32.43;;;8.50;99.90;;;;;;5095892;28;20468;-68
2021/11/04 06:37:21;;;;;;;43.43;29.40;;;8.50;99.90;;;;;;5095067;28;20522;-68
2021/11/04 06:39:48;;;;;;;45.20;30.20;;;8.50;99.90;;;;;;5094375;28;20470;-68
2021/11/04 06:42:16;;;;;;;44.50;29.67;;;8.50;99.90;;;;;;5094624;28;20829;-68
2021/11/04 06:44:44;;;;;;;43.27;29.50;;;8.50;99.90;;;;;;5094566;28;20459;-68
2021/11/04 06:47:19;;;;;;;48.30;30.40;;;8.60;99.90;;;;;;5094784;28;20547;-68
2021/11/04 06:49:50;;;;;;;49.17;30.57;;;8.60;99.90;;;;;;5094299;28;20533;-68
2021/11/04 06:52:24;;;;;;;44.37;28.87;;;8.60;99.90;;;;;;5094658;28;20577;-68
2021/11/04 06:54:52;;;;;;;47.50;30.00;;;8.60;99.90;;;;;;5094904;28;20445;-68
2021/11/04 06:57:20;;;;;;;44.97;30.73;;;8.60;99.90;;;;;;5094335;28;20575;-67
2021/11/04 06:59:51;;;;;;;44.33;28.57;;;8.60;99.90;;;;;;5095717;28;20751;-66
2021/11/04 07:02:30;;;;;;;46.33;29.60;;;8.60;99.90;;;;;;5098894;28;20457;-68
2021/11/04 07:04:59;;;;;;;43.73;28.70;;;8.60;99.90;;;;;;5103734;28;20437;-69
2021/11/04 07:07:26;;;;;;;45.77;29.43;;;8.60;99.90;;;;;;5103735;28;20643;-68
2021/11/04 07:09:53;;;;;;;47.80;31.80;;;8.60;99.90;;;;;;5101938;28;20545;-67
2021/11/04 07:12:19;;;;;;;45.97;29.43;;;8.60;99.90;;;;;;5103166;28;20551;-69
2021/11/04 07:14:47;;;;;;;50.23;33.00;;;8.60;99.90;;;;;;5104033;28;20517;-68
2021/11/04 07:17:16;;;;;;;44.90;29.20;;;8.60;99.90;;;;;;5101050;28;20457;-69
2021/11/04 07:19:45;;;;;;;50.97;32.80;;;8.60;99.90;;;;;;5094895;28;20929;-68
2021/11/04 07:22:29;;;;;;;49.93;30.60;;;8.60;99.90;;;;;;5095583;28;20453;-68
2021/11/04 07:25:05;;;;;;;51.97;32.07;;;8.60;99.90;;;;;;5095373;28;20847;-68
2021/11/04 07:27:39;;;;;;;47.20;29.97;;;8.60;99.90;;;;;;5094912;28;20438;-68
2021/11/04 07:30:09;;;;;;;44.83;30.10;;;8.60;99.90;;;;;;5094370;28;20430;-68
2021/11/04 07:32:47;;;;;;;44.10;28.80;;;8.60;99.90;;;;;;5094870;28;20465;-68
2021/11/04 07:35:15;;;;;;;44.33;29.20;;;8.50;99.90;;;;;;5095372;28;20477;-68
2021/11/04 07:37:44;;;;;;;43.47;28.53;;;8.50;99.90;;;;;;5094391;28;20460;-68
2021/11/04 07:40:11;;;;;;;43.50;29.60;;;8.40;99.90;;;;;;5094695;28;20465;-68
2021/11/04 07:42:38;;;;;;;49.43;30.80;;;8.40;99.90;;;;;;5094375;28;20556;-66
2021/11/04 07:45:06;;;;;;;49.73;31.23;;;8.40;99.90;;;;;;5094666;28;20929;-68
2021/11/04 07:47:35;;;;;;;44.83;30.47;;;8.40;99.90;;;;;;5094155;28;20552;-66
2021/11/04 07:50:05;;;;;;;41.83;27.30;;;8.40;99.90;;;;;;5095012;28;20469;-69
2021/11/04 07:52:32;;;;;;;47.33;30.37;;;8.50;99.90;;;;;;5098152;28;20473;-67
2021/11/04 07:55:00;;;;;;;48.27;31.57;;;8.50;99.90;;;;;;5098383;28;20472;-67
2021/11/04 07:57:27;;;;;;;45.50;28.67;;;8.50;99.90;;;;;;5097906;28;20489;-67
2021/11/04 07:59:54;;;;;;;52.20;29.30;;;8.50;99.90;;;;;;5098363;28;20542;-68
2021/11/04 08:02:21;;;;;;;70.30;39.57;;;8.50;99.90;;;;;;5099177;28;20449;-68
2021/11/04 08:04:48;;;;;;;50.27;32.67;;;8.50;99.90;;;;;;5097608;28;20461;-68
2021/11/04 08:07:16;;;;;;;55.97;29.93;;;8.50;99.90;;;;;;5097726;28;20456;-67
2021/11/04 08:09:42;;;;;;;44.80;28.17;;;8.50;99.90;;;;;;5098082;28;20461;-68
2021/11/04 08:12:09;;;;;;;46.43;28.63;;;8.50;99.90;;;;;;5097948;28;20538;-67
2021/11/04 08:14:36;;;;;;;41.77;27.90;;;8.50;99.90;;;;;;5097928;28;20913;-68
2021/11/04 08:17:04;;;;;;;46.40;29.50;;;8.40;99.90;;;;;;5097793;28;20862;-68
2021/11/04 08:19:30;;;;;;;44.40;29.77;;;8.40;99.90;;;;;;5097913;28;20909;-67
2021/11/04 08:21:57;;;;;;;47.03;29.77;;;8.40;99.90;;;;;;5097740;28;20471;-68
2021/11/04 08:24:26;;;;;;;48.37;29.40;;;8.40;99.90;;;;;;5097716;28;20585;-68
2021/11/04 08:26:52;;;;;;;46.97;29.70;;;8.40;99.90;;;;;;5097557;28;20461;-68
2021/11/04 08:29:19;;;;;;;47.43;30.07;;;8.40;99.90;;;;;;5096859;28;20458;-68
2021/11/04 08:31:46;;;;;;;48.83;30.43;;;8.40;99.90;;;;;;5097103;28;20483;-69
2021/11/04 08:34:14;;;;;;;45.83;29.83;;;8.40;99.90;;;;;;5097327;28;20516;-68
2021/11/04 08:36:43;;;;;;;47.00;29.90;;;8.40;99.90;;;;;;5097129;28;20526;-68
2021/11/04 08:39:09;;;;;;;50.07;31.77;;;8.30;99.90;;;;;;5096547;28;20959;-68
2021/11/04 08:41:37;;;;;;;50.70;32.87;;;8.30;99.90;;;;;;5097079;28;20915;-68
2021/11/04 08:44:05;;;;;;;50.37;31.03;;;8.30;99.90;;;;;;5097179;28;20461;-68
2021/11/04 08:46:31;;;;;;;46.10;28.73;;;8.30;99.90;;;;;;5097129;28;20464;-68
2021/11/04 08:48:58;;;;;;;49.23;30.83;;;8.30;99.90;;;;;;5096677;28;20465;-68
2021/11/04 08:51:25;;;;;;;47.03;28.73;;;8.30;99.90;;;;;;5096947;28;20477;-68
2021/11/04 08:53:51;;;;;;;47.20;29.37;;;8.30;99.90;;;;;;5096956;28;20453;-68
2021/11/04 08:56:18;;;;;;;50.23;31.70;;;8.30;99.90;;;;;;5096463;28;20518;-68
2021/11/04 08:58:46;;;;;;;53.70;33.03;;;8.20;99.90;;;;;;5096429;28;20905;-68
2021/11/04 09:01:14;;;;;;;52.30;29.80;;;8.20;99.90;;;;;;5096848;28;20785;-68
2021/11/04 09:03:40;;;;;;;49.07;30.27;;;8.20;99.90;;;;;;5096258;28;20458;-68
2021/11/04 09:06:07;;;;;;;51.30;30.30;;;8.20;99.90;;;;;;5096781;28;20473;-68
2021/11/04 09:08:34;;;;;;;50.03;29.80;;;8.10;99.90;;;;;;5096767;28;20472;-69
2021/11/04 09:11:00;;;;;;;50.47;31.67;;;8.10;99.90;;;;;;5096527;28;20816;-67
2021/11/04 09:13:27;;;;;;;48.00;29.10;;;8.10;99.90;;;;;;5096760;28;20568;-71
2021/11/04 09:15:55;;;;;;;41.63;28.23;;;8.10;99.90;;;;;;5096932;28;20806;-68
2021/11/04 09:18:22;;;;;;;47.97;30.23;;;8.10;99.90;;;;;;5096151;28;20459;-68
2021/11/04 09:20:49;;;;;;;43.43;27.93;;;8.00;99.90;;;;;;5096563;28;20468;-68
2021/11/04 09:23:16;;;;;;;45.73;29.07;;;8.00;99.90;;;;;;5096801;28;20798;-68
2021/11/04 09:25:45;;;;;;;47.73;30.23;;;8.00;99.90;;;;;;5096801;28;20465;-68
2021/11/04 09:28:12;;;;;;;49.27;29.80;;;8.00;99.90;;;;;;5096536;28;20461;-68
2021/11/04 09:30:41;;;;;;;49.37;28.77;;;8.00;99.90;;;;;;5096270;28;20943;-68
2021/11/04 09:33:09;;;;;;;50.73;29.47;;;8.00;99.90;;;;;;5096295;28;20586;-68
2021/11/04 09:35:36;;;;;;;51.90;30.87;;;7.90;99.90;;;;;;5096177;28;20456;-67
2021/11/04 09:38:07;;;;;;;40.33;26.40;;;7.90;99.90;;;;;;5096006;28;20965;-67
2021/11/04 09:40:34;;;;;;;42.90;28.07;;;7.90;99.90;;;;;;5096370;28;20461;-68
2021/11/04 09:43:01;;;;;;;42.37;26.47;;;7.90;99.90;;;;;;5096094;28;20468;-68
2021/11/04 09:45:29;;;;;;;44.70;27.80;;;7.90;99.90;;;;;;5096363;28;20829;-68
2021/11/04 09:47:56;;;;;;;43.17;26.37;;;7.90;99.90;;;;;;5096210;28;20560;-67
2021/11/04 09:50:25;;;;;;;40.77;26.43;;;7.90;99.90;;;;;;5095828;28;20456;-69
2021/11/04 09:52:55;;;;;;;40.40;25.33;;;7.90;99.90;;;;;;5095703;28;20477;-68
2021/11/04 09:55:25;;;;;;;38.17;24.50;;;7.90;99.90;;;;;;5096473;28;20819;-68
2021/11/04 09:57:55;;;;;;;45.27;24.60;;;8.00;99.90;;;;;;5095299;28;20511;-70
2021/11/04 10:00:30;;;;;;;34.87;21.67;;;8.00;99.90;;;;;;5095929;28;20822;-68
2021/11/04 10:03:03;;;;;;;40.27;22.37;;;7.90;99.90;;;;;;5095610;28;20904;-69
2021/11/04 10:05:38;;;;;;;33.27;22.13;;;7.90;99.90;;;;;;5095563;28;20457;-67
2021/11/04 10:08:06;;;;;;;31.03;20.50;;;7.90;99.90;;;;;;5095858;28;20846;-68
2021/11/04 10:10:33;;;;;;;34.07;20.33;;;7.80;99.90;;;;;;5095873;28;20544;-69
2021/11/04 10:13:04;;;;;;;29.27;19.70;;;7.80;99.90;;;;;;5095720;28;20765;-69
2021/11/04 10:15:34;;;;;;;29.03;19.60;;;7.80;99.90;;;;;;5094381;28;20916;-68
2021/11/04 10:18:11;;;;;;;28.00;19.93;;;7.80;99.90;;;;;;5095476;28;20455;-68
2021/11/04 10:20:40;;;;;;;31.17;19.80;;;7.80;99.90;;;;;;5095679;28;20440;-68
2021/11/04 10:23:09;;;;;;;29.37;19.03;;;7.80;99.90;;;;;;5095342;28;20453;-68
2021/11/04 10:25:36;;;;;;;26.33;18.80;;;7.80;99.90;;;;;;5095466;28;20460;-68
2021/11/04 10:28:22;;;;;;;25.00;16.63;;;7.80;99.90;;;;;;5095437;28;20792;-68
2021/11/04 10:30:49;;;;;;;26.47;18.40;;;7.80;99.90;;;;;;5095195;28;20444;-68
2021/11/04 10:33:24;;;;;;;27.43;17.70;;;7.80;99.90;;;;;;5095661;28;20484;-68
2021/11/04 10:35:59;;;;;;;28.63;18.63;;;7.80;99.90;;;;;;5095776;28;21024;-68
2021/11/04 10:38:31;;;;;;;28.80;18.20;;;7.80;99.90;;;;;;5095694;28;20733;-68
2021/11/04 10:40:58;;;;;;;23.10;16.10;;;7.80;99.90;;;;;;5095579;28;20866;-68
2021/11/04 10:43:25;;;;;;;27.63;17.60;;;7.80;99.90;;;;;;5095806;28;20452;-69
2021/11/04 10:46:00;;;;;;;23.93;16.93;;;7.70;99.90;;;;;;5095176;28;20460;-68
2021/11/04 10:48:27;;;;;;;22.83;16.77;;;7.80;99.90;;;;;;5095497;28;20468;-68
2021/11/04 10:50:55;;;;;;;22.83;16.43;;;7.80;99.90;;;;;;5095253;28;20457;-68
2021/11/04 10:53:23;;;;;;;23.77;17.07;;;7.70;99.90;;;;;;5095127;28;20555;-68
2021/11/04 10:55:54;;;;;;;26.10;18.10;;;7.80;99.90;;;;;;5094617;28;20453;-67
2021/11/04 10:58:32;;;;;;;24.30;16.47;;;7.70;99.90;;;;;;5094660;28;20985;-71
2021/11/04 11:01:00;;;;;;;24.60;18.80;;;7.80;99.90;;;;;;5094946;28;20446;-68
2021/11/04 11:03:28;;;;;;;25.40;18.07;;;7.80;99.90;;;;;;5094973;28;20453;-68
2021/11/04 11:05:58;;;;;;;21.80;15.00;;;7.70;99.90;;;;;;5095130;28;20811;-69
2021/11/04 11:08:27;;;;;;;23.67;15.90;;;7.70;99.90;;;;;;5094882;28;20452;-69
2021/11/04 11:10:54;;;;;;;20.60;15.33;;;7.80;99.90;;;;;;5094374;28;20465;-68
2021/11/04 11:13:21;;;;;;;21.03;14.07;;;7.80;99.90;;;;;;5094348;28;20495;-68
2021/11/04 11:15:52;;;;;;;19.13;14.57;;;7.80;99.90;;;;;;5094770;28;20840;-68
2021/11/04 11:18:21;;;;;;;18.37;12.97;;;7.70;99.90;;;;;;5095169;28;20535;-68
2021/11/04 11:20:49;;;;;;;18.07;13.07;;;7.70;99.90;;;;;;5094383;28;20507;-68
2021/11/04 11:23:18;;;;;;;17.40;12.60;;;7.70;99.90;;;;;;5094693;28;20778;-68
2021/11/04 11:25:48;;;;;;;16.80;13.00;;;7.70;99.90;;;;;;5095244;28;20461;-68
2021/11/04 11:28:15;;;;;;;19.27;14.00;;;7.70;99.90;;;;;;5098974;28;20445;-67
2021/11/04 11:30:42;;;;;;;16.93;11.57;;;7.70;99.90;;;;;;5098500;28;20475;-69
2021/11/04 11:33:25;;;;;;;17.97;12.70;;;7.70;99.90;;;;;;5098480;28;20476;-69
2021/11/04 11:36:11;;;;;;;14.00;10.93;;;7.80;99.90;;;;;;5098634;28;20904;-69
2021/11/04 11:39:09;;;;;;;15.97;12.83;;;7.70;99.90;;;;;;5098574;28;20546;-68
2021/11/04 11:42:10;;;;;;;14.27;11.97;;;7.80;99.90;;;;;;5098606;28;20440;-69
2021/11/04 11:44:40;;;;;;;17.20;11.60;;;7.80;99.90;;;;;;5098268;28;20433;-69
2021/11/04 11:47:09;;;;;;;16.07;11.10;;;7.80;99.90;;;;;;5098347;28;20452;-69
2021/11/04 11:49:38;;;;;;;14.80;10.33;;;7.80;99.90;;;;;;5099559;28;20457;-69
2021/11/04 11:52:06;;;;;;;15.73;11.60;;;7.90;99.90;;;;;;5100386;28;20818;-68
2021/11/04 11:55:09;;;;;;;13.60;9.60;;;7.90;99.90;;;;;;5101642;28;20541;-69
2021/11/04 11:57:37;;;;;;;12.33;9.93;;;7.90;99.90;;;;;;5095686;28;20511;-70
2021/11/04 12:00:06;;;;;;;13.50;10.47;;;7.90;99.90;;;;;;5099877;28;20460;-68
2021/11/04 12:02:41;;;;;;;14.83;10.70;;;7.90;99.90;;;;;;5097929;28;20456;-69
2021/11/04 12:05:34;;;;;;;12.50;9.47;;;7.90;99.90;;;;;;5097686;28;20456;-69
2021/11/04 12:08:35;;;;;;;14.67;10.63;;;7.90;99.90;;;;;;5097419;28;21004;-68
2021/11/04 12:11:09;;;;;;;11.20;9.07;;;7.90;99.90;;;;;;5098265;28;20453;-68
2021/11/04 12:13:38;;;;;;;11.63;9.30;;;7.90;99.90;;;;;;5097213;28;20465;-68
2021/11/04 12:16:16;;;;;;;15.13;9.60;;;7.90;99.90;;;;;;5097437;28;20503;-69
2021/11/04 12:18:53;;;;;;;14.07;10.00;;;7.80;99.90;;;;;;5097948;28;20457;-69
2021/11/04 12:21:23;;;;;;;13.13;9.60;;;7.90;99.90;;;;;;5097853;28;20477;-69
2021/11/04 12:23:51;;;;;;;11.20;8.67;;;7.90;99.90;;;;;;5098345;28;20446;-69
2021/11/04 12:26:33;;;;;;;12.13;9.50;;;7.90;99.90;;;;;;5096983;28;20465;-69
2021/11/04 12:29:00;;;;;;;11.40;9.50;;;7.90;99.90;;;;;;5097664;28;20440;-69
2021/11/04 12:31:29;;;;;;;10.30;7.93;;;7.90;99.90;;;;;;5099087;28;20457;-68
2021/11/04 12:33:57;;;;;;;10.60;8.73;;;7.90;99.90;;;;;;5097484;28;20488;-67
2021/11/04 12:36:34;;;;;;;11.10;8.90;;;7.90;99.90;;;;;;5097401;28;20472;-68
2021/11/04 12:39:03;;;;;;;12.83;9.10;;;7.90;99.90;;;;;;5096262;28;20453;-68
2021/11/04 12:41:31;;;;;;;12.97;9.30;;;7.90;99.90;;;;;;5097429;28;20469;-68
2021/11/04 12:44:02;;;;;;;11.00;9.17;;;7.90;99.90;;;;;;5097366;28;20457;-68
2021/11/04 12:46:31;;;;;;;11.23;8.47;;;7.90;99.90;;;;;;5098301;28;20769;-68